Time;durP1;ratioP1;P1;durP2;ratioP2;P2;SDS_P1;SDS_P2;PMS_P1;PMS_P2;Temp;Humidity;BMP_temperature;BMP_pressure;BME280_temperature;BME280_humidity;BME280_pressure;Samples;Min_cycle;Max_cycle;Signal;HPM_P1;HPM_P2
2022/12/17 13:06:13;;;;;;;140.07;52.70;;;;;;;;;;4994010;28;20034;-82
2022/12/17 13:08:40;;;;;;;144.20;53.35;;;;;;;;;;5007319;28;20034;-82
2022/12/17 13:11:26;;;;;;;137.05;51.88;;;;;;;;;;4989872;28;20506;-81
2022/12/17 13:13:56;;;;;;;140.65;50.35;;;;;;;;;;4984942;28;20045;-82
2022/12/17 13:16:22;;;;;;;133.07;50.50;;;;;;;;;;5000271;28;20467;-83
2022/12/17 13:18:48;;;;;;;127.65;49.85;;;;;;;;;;4991025;28;20038;-83
2022/12/17 13:21:14;;;;;;;131.27;52.15;;;;;;;;;;4993791;28;20474;-82
2022/12/17 13:23:40;;;;;;;124.38;48.63;;;;;;;;;;4988656;28;20455;-82
2022/12/17 13:26:13;;;;;;;122.50;49.30;;;;;;;;;;4980467;28;20027;-82
2022/12/17 13:28:40;;;;;;;119.25;48.28;;;;;;;;;;4987448;28;20041;-81
2022/12/17 13:31:13;;;;;;;123.50;51.17;;;;;;;;;;4993003;28;20031;-82
2022/12/17 13:34:00;;;;;;;124.72;49.72;;;;;;;;;;5000016;28;20131;-83
2022/12/17 13:36:26;;;;;;;124.63;47.65;;;;;;;;;;4991262;28;20034;-81
2022/12/17 13:39:04;;;;;;;134.80;48.55;;;;;;;;;;4991584;28;20257;-83
2022/12/17 13:41:32;;;;;;;122.20;49.08;;;;;;;;;;5003110;28;20049;-82
2022/12/17 13:44:02;;;;;;;121.60;48.40;;;;;;;;;;4991135;28;20041;-85
2022/12/17 13:46:35;;;;;;;99.28;38.28;;;;;;;;;;4994004;28;20030;-83
2022/12/17 13:49:05;;;;;;;117.88;46.03;;;;;;;;;;4990332;28;20080;-80
2022/12/17 13:51:33;;;;;;;131.35;51.58;;;;;;;;;;4988066;28;20061;-80
2022/12/17 13:54:03;;;;;;;126.65;49.08;;;;;;;;;;4979556;28;20038;-81
2022/12/17 13:56:31;;;;;;;127.75;49.22;;;;;;;;;;4993210;28;20030;-82
2022/12/17 13:58:58;;;;;;;121.22;47.30;;;;;;;;;;4990500;28;20035;-82
2022/12/17 14:01:25;;;;;;;125.70;46.63;;;;;;;;;;4990278;28;20026;-81
2022/12/17 14:03:52;;;;;;;125.63;47.45;;;;;;;;;;4971206;28;20043;-81
2022/12/17 14:06:19;;;;;;;125.10;47.53;;;;;;;;;;4968593;28;20125;-81
2022/12/17 14:08:49;;;;;;;118.43;45.72;;;;;;;;;;4999972;28;20035;-83
2022/12/17 14:14:00;;;;;;;123.82;48.38;;;;;;;;;;4991289;28;20040;-80
2022/12/17 14:16:26;;;;;;;125.38;46.45;;;;;;;;;;4990988;28;20042;-80
2022/12/17 14:18:54;;;;;;;128.43;49.45;;;;;;;;;;4990088;28;20476;-82
2022/12/17 14:21:20;;;;;;;141.68;48.60;;;;;;;;;;4990378;28;20034;-80
2022/12/17 14:24:05;;;;;;;127.07;49.65;;;;;;;;;;4990761;28;20539;-82
2022/12/17 14:26:31;;;;;;;133.45;47.85;;;;;;;;;;4988821;28;20093;-81
2022/12/17 14:28:57;;;;;;;125.88;46.80;;;;;;;;;;4991688;28;20042;-80
2022/12/17 14:31:26;;;;;;;141.82;46.05;;;;;;;;;;5019881;28;20475;-80
2022/12/17 14:34:08;;;;;;;144.75;49.45;;;;;;;;;;4997686;28;20022;-80
2022/12/17 14:36:38;;;;;;;130.32;45.58;;;;;;;;;;4981402;28;20030;-80
2022/12/17 14:39:23;;;;;;;100.22;36.80;;;;;;;;;;4990993;28;20147;-81
2022/12/17 14:44:35;;;;;;;135.35;44.17;;;;;;;;;;4990825;28;20026;-80
2022/12/17 14:47:18;;;;;;;140.02;45.47;;;;;;;;;;4988261;28;20094;-80
2022/12/17 14:49:51;;;;;;;129.30;44.45;;;;;;;;;;4987057;28;20034;-80
2022/12/17 14:52:27;;;;;;;131.68;45.70;;;;;;;;;;4986746;28;20106;-77
2022/12/17 14:54:53;;;;;;;145.57;46.45;;;;;;;;;;4989126;28;20116;-77
2022/12/17 14:57:21;;;;;;;149.73;47.92;;;;;;;;;;5001205;28;20442;-78
2022/12/17 14:59:47;;;;;;;147.30;48.70;;;;;;;;;;4983544;28;20026;-78
2022/12/17 15:02:22;;;;;;;165.18;53.25;;;;;;;;;;4987063;28;20105;-78
2022/12/17 15:04:49;;;;;;;172.77;51.13;;;;;;;;;;4988366;28;20034;-88
2022/12/17 15:07:19;;;;;;;164.60;49.00;;;;;;;;;;4986906;28;20054;-77
2022/12/17 15:09:45;;;;;;;145.83;44.30;;;;;;;;;;4987910;28;20026;-78
2022/12/17 15:12:11;;;;;;;155.25;46.92;;;;;;;;;;4986914;28;20281;-78
2022/12/17 15:14:37;;;;;;;156.43;48.72;;;;;;;;;;4981482;28;20041;-77
2022/12/17 15:17:04;;;;;;;158.50;49.17;;;;;;;;;;4971181;28;20082;-78
2022/12/17 15:19:30;;;;;;;153.13;46.20;;;;;;;;;;4986150;28;20037;-77
2022/12/17 15:21:56;;;;;;;165.05;51.03;;;;;;;;;;4985648;28;20050;-78
2022/12/17 15:24:22;;;;;;;155.15;47.08;;;;;;;;;;4985620;28;20081;-77
2022/12/17 15:26:49;;;;;;;153.25;45.88;;;;;;;;;;4985046;28;20030;-78
2022/12/17 15:29:15;;;;;;;163.93;47.92;;;;;;;;;;4985499;28;20054;-82
2022/12/17 15:31:41;;;;;;;162.10;49.03;;;;;;;;;;4971601;28;20336;-78
2022/12/17 15:34:10;;;;;;;172.55;51.75;;;;;;;;;;4988544;28;20045;-79
2022/12/17 15:36:36;;;;;;;171.48;49.72;;;;;;;;;;4985063;28;20054;-79
2022/12/17 15:39:05;;;;;;;162.43;46.42;;;;;;;;;;4961211;28;20034;-78
2022/12/17 15:44:16;;;;;;;166.20;49.08;;;;;;;;;;4987063;28;20088;-79
2022/12/17 15:46:42;;;;;;;166.80;48.47;;;;;;;;;;4986541;28;20479;-79
2022/12/17 15:49:08;;;;;;;163.25;47.03;;;;;;;;;;4987210;28;20030;-84
2022/12/17 15:51:34;;;;;;;160.75;45.65;;;;;;;;;;4984680;28;20034;-79
2022/12/17 15:54:02;;;;;;;161.02;46.60;;;;;;;;;;4981070;28;20037;-77
2022/12/17 15:56:28;;;;;;;170.70;49.00;;;;;;;;;;4983601;28;20511;-77
2022/12/17 15:58:58;;;;;;;149.63;46.80;;;;;;;;;;4984118;28;20041;-77
2022/12/17 16:01:24;;;;;;;157.52;47.58;;;;;;;;;;4986160;28;20030;-76
2022/12/17 16:03:50;;;;;;;167.10;45.17;;;;;;;;;;4985202;28;22040;-77
2022/12/17 16:06:16;;;;;;;164.40;46.17;;;;;;;;;;5003024;28;20030;-77
2022/12/17 16:08:42;;;;;;;163.35;45.58;;;;;;;;;;4965749;28;20474;-77
2022/12/17 16:11:09;;;;;;;177.82;49.50;;;;;;;;;;4989601;28;20069;-77
2022/12/17 16:13:36;;;;;;;183.10;49.30;;;;;;;;;;4991039;28;20026;-77
2022/12/17 16:16:02;;;;;;;179.23;48.97;;;;;;;;;;4992144;28;20432;-77
2022/12/17 16:18:28;;;;;;;189.30;54.25;;;;;;;;;;4989190;28;20489;-77
2022/12/17 16:20:54;;;;;;;171.60;49.42;;;;;;;;;;4986741;28;20037;-77
2022/12/17 16:23:20;;;;;;;172.43;51.90;;;;;;;;;;4987422;28;20031;-77
2022/12/17 16:25:57;;;;;;;182.25;53.05;;;;;;;;;;4984848;28;20525;-77
2022/12/17 16:28:23;;;;;;;179.30;54.65;;;;;;;;;;4984017;28;20388;-76
2022/12/17 16:30:58;;;;;;;175.95;52.00;;;;;;;;;;4982281;28;20027;-75
2022/12/17 16:33:24;;;;;;;175.38;49.92;;;;;;;;;;4985847;28;20037;-81
2022/12/17 16:35:51;;;;;;;181.70;52.85;;;;;;;;;;4986532;28;20018;-81
2022/12/17 16:38:17;;;;;;;183.25;53.38;;;;;;;;;;4984932;28;20073;-80
2022/12/17 16:40:43;;;;;;;175.80;48.28;;;;;;;;;;4986788;28;20675;-80
2022/12/17 16:43:09;;;;;;;173.48;48.83;;;;;;;;;;4985852;28;20026;-80
2022/12/17 16:45:45;;;;;;;184.27;52.25;;;;;;;;;;4986060;28;20038;-80
2022/12/17 16:48:11;;;;;;;168.57;48.80;;;;;;;;;;4985770;28;20398;-80
2022/12/17 16:50:37;;;;;;;164.25;49.90;;;;;;;;;;4969297;28;20473;-80
2022/12/17 16:53:04;;;;;;;176.80;50.78;;;;;;;;;;4986106;28;20089;-80
2022/12/17 16:55:30;;;;;;;175.52;51.10;;;;;;;;;;5000934;28;20041;-80
2022/12/17 16:57:56;;;;;;;168.35;48.10;;;;;;;;;;4980540;28;20677;-80
2022/12/17 17:00:22;;;;;;;164.35;48.13;;;;;;;;;;4985824;28;20035;-80
2022/12/17 17:02:48;;;;;;;168.48;46.72;;;;;;;;;;4972406;28;20030;-86
2022/12/17 17:05:14;;;;;;;174.57;50.53;;;;;;;;;;4987001;28;20458;-80
2022/12/17 17:07:40;;;;;;;173.85;49.83;;;;;;;;;;4991711;28;20046;-80
2022/12/17 17:10:07;;;;;;;169.77;48.92;;;;;;;;;;4990352;28;20038;-79
2022/12/17 17:12:33;;;;;;;177.50;46.70;;;;;;;;;;4991379;28;20030;-80
2022/12/17 17:14:59;;;;;;;178.63;50.70;;;;;;;;;;4991159;28;20027;-79
2022/12/17 17:17:25;;;;;;;170.18;48.58;;;;;;;;;;4988934;28;20014;-80
2022/12/17 17:19:51;;;;;;;163.43;48.10;;;;;;;;;;4988517;28;20026;-79
2022/12/17 17:22:17;;;;;;;177.27;49.40;;;;;;;;;;4988345;28;20038;-79
2022/12/17 17:24:43;;;;;;;165.25;48.92;;;;;;;;;;4990909;28;20036;-82
2022/12/17 17:27:09;;;;;;;163.75;47.80;;;;;;;;;;4976701;28;20030;-81
2022/12/17 17:29:36;;;;;;;172.60;47.80;;;;;;;;;;4990269;28;20121;-80
2022/12/17 17:32:05;;;;;;;171.75;48.28;;;;;;;;;;4993268;28;20052;-80
2022/12/17 17:34:31;;;;;;;183.60;51.85;;;;;;;;;;4969306;28;20531;-80
2022/12/17 17:36:57;;;;;;;181.02;49.80;;;;;;;;;;4988517;28;20107;-81
2022/12/17 17:39:23;;;;;;;197.00;52.47;;;;;;;;;;5001370;28;20431;-81
2022/12/17 17:41:50;;;;;;;190.77;51.47;;;;;;;;;;4981737;28;20034;-81
2022/12/17 17:44:16;;;;;;;179.35;50.83;;;;;;;;;;4992226;28;20034;-80
2022/12/17 17:46:42;;;;;;;191.27;52.10;;;;;;;;;;4983397;28;20038;-79
2022/12/17 17:49:09;;;;;;;194.07;53.15;;;;;;;;;;4965213;28;20030;-80
2022/12/17 17:51:42;;;;;;;194.43;51.20;;;;;;;;;;5006649;28;20120;-80
2022/12/17 17:54:11;;;;;;;196.82;51.80;;;;;;;;;;4991267;28;20100;-80
2022/12/17 17:56:39;;;;;;;205.20;53.78;;;;;;;;;;4988583;28;20038;-83
2022/12/17 17:59:06;;;;;;;200.52;55.00;;;;;;;;;;4981438;28;20030;-81
2022/12/17 18:01:34;;;;;;;194.70;52.35;;;;;;;;;;4983417;28;20385;-86
2022/12/17 18:04:01;;;;;;;182.35;49.22;;;;;;;;;;4978542;28;20041;-87
2022/12/17 18:06:27;;;;;;;175.82;48.10;;;;;;;;;;4975796;28;20126;-80
2022/12/17 18:08:57;;;;;;;182.40;51.17;;;;;;;;;;4979352;28;20039;-81
2022/12/17 18:11:24;;;;;;;171.93;50.40;;;;;;;;;;4987066;28;20436;-81
2022/12/17 18:13:53;;;;;;;186.35;50.25;;;;;;;;;;4998804;28;20034;-80
2022/12/17 18:16:20;;;;;;;171.00;48.17;;;;;;;;;;4986049;28;20053;-79
2022/12/17 18:19:05;;;;;;;168.95;51.42;;;;;;;;;;4986607;28;20109;-84
2022/12/17 18:21:32;;;;;;;171.32;49.20;;;;;;;;;;4979676;28;20031;-81
2022/12/17 18:23:59;;;;;;;179.52;49.03;;;;;;;;;;5001428;28;20471;-81
2022/12/17 18:26:27;;;;;;;188.30;53.10;;;;;;;;;;4990839;28;20559;-80
2022/12/17 18:28:53;;;;;;;178.77;53.88;;;;;;;;;;4987651;28;20395;-80
2022/12/17 18:31:21;;;;;;;172.88;51.00;;;;;;;;;;4996157;28;20630;-80
2022/12/17 18:33:48;;;;;;;185.10;51.30;;;;;;;;;;4971251;28;20447;-80
2022/12/17 18:36:15;;;;;;;175.10;51.58;;;;;;;;;;4962860;28;20038;-80
2022/12/17 18:38:42;;;;;;;186.93;53.70;;;;;;;;;;4984015;28;20411;-80
2022/12/17 18:44:00;;;;;;;134.20;38.17;;;;;;;;;;4981810;28;20488;-80
2022/12/17 18:46:26;;;;;;;188.18;52.63;;;;;;;;;;4987668;28;20034;-80
2022/12/17 18:48:53;;;;;;;179.32;50.22;;;;;;;;;;4998994;28;20389;-80
2022/12/17 18:51:22;;;;;;;167.32;48.55;;;;;;;;;;4997986;28;20035;-80
2022/12/17 18:53:49;;;;;;;188.52;53.20;;;;;;;;;;4984610;28;20484;-80
2022/12/17 18:56:15;;;;;;;195.55;52.67;;;;;;;;;;4985630;28;20098;-79
2022/12/17 18:58:41;;;;;;;205.52;56.00;;;;;;;;;;4987274;28;20074;-80
2022/12/17 19:01:07;;;;;;;199.82;54.70;;;;;;;;;;4997463;28;20733;-79
2022/12/17 19:03:34;;;;;;;199.05;55.95;;;;;;;;;;4982177;28;20173;-81
2022/12/17 19:06:04;;;;;;;207.68;55.17;;;;;;;;;;4987053;28;20065;-82
2022/12/17 19:08:33;;;;;;;181.05;53.45;;;;;;;;;;4981155;28;20077;-80
2022/12/17 19:11:03;;;;;;;186.30;53.05;;;;;;;;;;4998789;28;20054;-80
2022/12/17 19:13:32;;;;;;;190.93;53.30;;;;;;;;;;4985153;28;20030;-80
2022/12/17 19:16:03;;;;;;;192.70;53.00;;;;;;;;;;4985240;28;20332;-80
2022/12/17 19:18:29;;;;;;;190.07;52.80;;;;;;;;;;4984078;28;20472;-83
2022/12/17 19:20:59;;;;;;;193.43;55.22;;;;;;;;;;4987590;28;20034;-79
2022/12/17 19:23:25;;;;;;;212.27;53.80;;;;;;;;;;4985299;28;20391;-81
2022/12/17 19:25:51;;;;;;;212.48;55.90;;;;;;;;;;4985254;28;20614;-80
2022/12/17 19:28:19;;;;;;;215.60;55.58;;;;;;;;;;4980837;28;20050;-80
2022/12/17 19:30:45;;;;;;;208.82;56.20;;;;;;;;;;4999971;28;20452;-84
2022/12/17 19:33:11;;;;;;;219.52;57.17;;;;;;;;;;4984573;28;20062;-81
2022/12/17 19:35:38;;;;;;;213.02;55.55;;;;;;;;;;4981621;28;20112;-81
2022/12/17 19:38:04;;;;;;;198.70;56.58;;;;;;;;;;4983825;28;20033;-80
2022/12/17 19:40:30;;;;;;;212.30;54.85;;;;;;;;;;4985175;28;20092;-81
2022/12/17 19:42:56;;;;;;;203.30;56.00;;;;;;;;;;4968010;28;20030;-81
2022/12/17 19:45:22;;;;;;;205.82;53.75;;;;;;;;;;4980181;28;20058;-81
2022/12/17 19:47:48;;;;;;;202.57;54.38;;;;;;;;;;4983980;28;20038;-81
2022/12/17 19:50:16;;;;;;;221.65;57.00;;;;;;;;;;4981494;28;20046;-80
2022/12/17 19:52:42;;;;;;;221.85;57.47;;;;;;;;;;4978577;28;20035;-80
2022/12/17 19:55:09;;;;;;;209.82;58.25;;;;;;;;;;4983867;28;20452;-80
2022/12/17 19:57:35;;;;;;;229.35;58.63;;;;;;;;;;4985196;28;20396;-80
2022/12/17 20:00:01;;;;;;;234.98;59.50;;;;;;;;;;4984975;28;20598;-80
2022/12/17 20:02:27;;;;;;;237.57;58.75;;;;;;;;;;4981389;28;20026;-80
2022/12/17 20:04:53;;;;;;;246.68;58.22;;;;;;;;;;4984826;28;20089;-80
2022/12/17 20:07:19;;;;;;;230.38;59.72;;;;;;;;;;4984682;28;20046;-80
2022/12/17 20:09:45;;;;;;;265.08;61.03;;;;;;;;;;4998265;28;20038;-80
2022/12/17 20:12:12;;;;;;;274.25;67.63;;;;;;;;;;4979974;28;20034;-79
2022/12/17 20:14:38;;;;;;;294.63;73.63;;;;;;;;;;4985586;28;20027;-80
2022/12/17 20:17:05;;;;;;;245.50;65.70;;;;;;;;;;4966014;28;20054;-79
2022/12/17 20:19:32;;;;;;;218.23;61.88;;;;;;;;;;4982937;28;20023;-82
2022/12/17 20:22:03;;;;;;;227.90;60.05;;;;;;;;;;4965132;28;20038;-82
2022/12/17 20:24:29;;;;;;;237.32;59.80;;;;;;;;;;4978432;28;20569;-80
2022/12/17 20:26:56;;;;;;;235.93;63.40;;;;;;;;;;4984697;28;20606;-81
2022/12/17 20:29:23;;;;;;;241.23;64.97;;;;;;;;;;4983297;28;20355;-80
2022/12/17 20:31:50;;;;;;;227.10;59.22;;;;;;;;;;4974282;28;20066;-81
2022/12/17 20:34:17;;;;;;;243.82;58.92;;;;;;;;;;4980765;28;20419;-81
2022/12/17 20:36:43;;;;;;;243.35;58.40;;;;;;;;;;4987980;28;20026;-81
2022/12/17 20:39:10;;;;;;;242.13;59.70;;;;;;;;;;4985648;28;20058;-81
2022/12/17 20:41:38;;;;;;;240.80;57.63;;;;;;;;;;4985830;28;20056;-80
2022/12/17 20:44:10;;;;;;;242.50;59.15;;;;;;;;;;4988669;28;20129;-81
2022/12/17 20:46:37;;;;;;;235.52;57.55;;;;;;;;;;4987779;28;20034;-81
2022/12/17 20:49:04;;;;;;;251.90;60.78;;;;;;;;;;4999046;28;20454;-80
2022/12/17 20:51:30;;;;;;;254.93;60.25;;;;;;;;;;4985675;28;20372;-80
2022/12/17 20:53:57;;;;;;;260.17;59.28;;;;;;;;;;4989233;28;20341;-80
2022/12/17 20:56:31;;;;;;;260.83;55.63;;;;;;;;;;4983526;28;20531;-80
2022/12/17 20:58:58;;;;;;;261.73;56.50;;;;;;;;;;4974990;28;20276;-81
2022/12/17 21:01:26;;;;;;;275.15;59.33;;;;;;;;;;4986246;28;20467;-81
2022/12/17 21:03:53;;;;;;;255.15;57.53;;;;;;;;;;4986610;28;20546;-81
2022/12/17 21:06:23;;;;;;;269.88;58.58;;;;;;;;;;4980168;28;20037;-81
2022/12/17 21:08:50;;;;;;;269.17;57.45;;;;;;;;;;4982508;28;20032;-85
2022/12/17 21:11:18;;;;;;;270.08;60.47;;;;;;;;;;4988642;28;20030;-79
2022/12/17 21:13:45;;;;;;;268.00;60.08;;;;;;;;;;5000440;28;20058;-81
2022/12/17 21:16:15;;;;;;;270.13;58.80;;;;;;;;;;4988461;28;20594;-80
2022/12/17 21:18:41;;;;;;;290.98;58.60;;;;;;;;;;4985054;28;20744;-79
2022/12/17 21:21:12;;;;;;;285.70;61.05;;;;;;;;;;4984398;28;20034;-79
2022/12/17 21:23:39;;;;;;;297.50;63.17;;;;;;;;;;4986452;28;20466;-82
2022/12/17 21:26:05;;;;;;;303.98;62.20;;;;;;;;;;4981869;28;20118;-82
2022/12/17 21:28:32;;;;;;;281.90;59.33;;;;;;;;;;4996650;28;20035;-80
2022/12/17 21:30:58;;;;;;;301.08;61.47;;;;;;;;;;4999845;28;20108;-80
2022/12/17 21:33:25;;;;;;;268.70;56.10;;;;;;;;;;4985739;28;20073;-79
2022/12/17 21:35:57;;;;;;;308.02;61.90;;;;;;;;;;4982798;28;20042;-80
2022/12/17 21:38:23;;;;;;;315.70;62.47;;;;;;;;;;4986358;28;20443;-80
2022/12/17 21:40:49;;;;;;;302.00;62.08;;;;;;;;;;4983989;28;20039;-80
2022/12/17 21:43:15;;;;;;;278.73;57.65;;;;;;;;;;4984219;28;20053;-81
2022/12/17 21:45:42;;;;;;;271.70;54.47;;;;;;;;;;4986831;28;20042;-80
2022/12/17 21:48:10;;;;;;;257.33;55.22;;;;;;;;;;4984891;28;20379;-80
2022/12/17 21:50:42;;;;;;;252.70;55.47;;;;;;;;;;4983376;28;20031;-81
2022/12/17 21:53:10;;;;;;;254.63;55.55;;;;;;;;;;4971311;28;20246;-81
2022/12/17 21:55:36;;;;;;;273.38;52.35;;;;;;;;;;4986472;28;20073;-80
2022/12/17 21:58:02;;;;;;;250.02;52.63;;;;;;;;;;4982978;28;20054;-81
2022/12/17 22:00:29;;;;;;;272.33;54.55;;;;;;;;;;4985154;28;20054;-81
2022/12/17 22:02:55;;;;;;;249.88;55.40;;;;;;;;;;4988004;28;20403;-81
2022/12/17 22:05:21;;;;;;;256.50;55.95;;;;;;;;;;4973166;28;20030;-81
2022/12/17 22:07:48;;;;;;;250.50;55.72;;;;;;;;;;4986390;28;20117;-82
2022/12/17 22:10:14;;;;;;;249.85;56.40;;;;;;;;;;4985986;28;20047;-81
2022/12/17 22:15:25;;;;;;;230.35;53.97;;;;;;;;;;4981097;28;20046;-81
2022/12/17 22:17:52;;;;;;;233.00;55.97;;;;;;;;;;4985522;28;20018;-86
2022/12/17 22:20:18;;;;;;;222.13;54.15;;;;;;;;;;4988918;28;20365;-82
2022/12/17 22:22:44;;;;;;;224.75;53.03;;;;;;;;;;4972156;28;20074;-81
2022/12/17 22:25:11;;;;;;;238.95;55.40;;;;;;;;;;4988777;28;20034;-81
2022/12/17 22:27:38;;;;;;;282.45;70.13;;;;;;;;;;4984670;28;20455;-82
2022/12/17 22:32:58;;;;;;;227.85;56.10;;;;;;;;;;4986744;28;20038;-82
2022/12/17 22:35:25;;;;;;;223.02;53.75;;;;;;;;;;4967604;28;20081;-81
2022/12/17 22:38:10;;;;;;;208.45;53.05;;;;;;;;;;4987537;28;20463;-82
2022/12/17 22:40:37;;;;;;;237.93;55.72;;;;;;;;;;5002126;28;20036;-81
2022/12/17 22:45:49;;;;;;;231.57;56.67;;;;;;;;;;4996853;28;20038;-81
2022/12/17 22:48:15;;;;;;;257.67;58.00;;;;;;;;;;4963438;28;20027;-81
2022/12/17 22:50:42;;;;;;;236.27;55.78;;;;;;;;;;4992201;28;20038;-81
2022/12/17 22:53:08;;;;;;;238.27;57.30;;;;;;;;;;4966538;28;20027;-82
2022/12/17 22:55:35;;;;;;;245.98;58.15;;;;;;;;;;4984958;28;20038;-81
2022/12/17 22:58:02;;;;;;;257.58;58.13;;;;;;;;;;4985274;28;20050;-81
2022/12/17 23:00:33;;;;;;;246.75;59.20;;;;;;;;;;4978976;28;20399;-81
2022/12/17 23:02:59;;;;;;;266.60;57.83;;;;;;;;;;5001080;28;20030;-81
2022/12/17 23:05:27;;;;;;;247.40;57.17;;;;;;;;;;4982965;28;20045;-81
2022/12/17 23:07:53;;;;;;;245.23;58.78;;;;;;;;;;4961775;28;20392;-82
2022/12/17 23:10:19;;;;;;;242.20;57.90;;;;;;;;;;4980640;28;20038;-81
2022/12/17 23:12:55;;;;;;;227.25;57.38;;;;;;;;;;4964726;28;20037;-80
2022/12/17 23:15:23;;;;;;;233.85;54.25;;;;;;;;;;4978799;28;20030;-81
2022/12/17 23:18:09;;;;;;;248.85;56.83;;;;;;;;;;4986484;28;20050;-81
2022/12/17 23:20:35;;;;;;;240.65;57.60;;;;;;;;;;4982565;28;20053;-81
2022/12/17 23:23:01;;;;;;;222.30;56.65;;;;;;;;;;4993967;28;20101;-81
2022/12/17 23:25:28;;;;;;;246.85;58.50;;;;;;;;;;4987353;28;20026;-81
2022/12/17 23:27:54;;;;;;;216.13;55.83;;;;;;;;;;4986356;28;20030;-81
2022/12/17 23:30:21;;;;;;;255.02;57.25;;;;;;;;;;4983914;28;20038;-81
2022/12/17 23:32:47;;;;;;;247.73;57.30;;;;;;;;;;4986408;28;20413;-82
2022/12/17 23:35:13;;;;;;;276.17;57.40;;;;;;;;;;4981034;28;20023;-81
2022/12/17 23:37:39;;;;;;;245.38;56.17;;;;;;;;;;4976106;28;20110;-81
2022/12/17 23:40:07;;;;;;;242.50;58.95;;;;;;;;;;4982604;28;20069;-81
2022/12/17 23:42:33;;;;;;;247.65;54.88;;;;;;;;;;4986416;28;20116;-81
2022/12/17 23:44:59;;;;;;;257.95;58.03;;;;;;;;;;4983664;28;20026;-81
2022/12/17 23:47:25;;;;;;;250.23;56.75;;;;;;;;;;4980088;28;20027;-81
2022/12/17 23:49:51;;;;;;;230.10;55.85;;;;;;;;;;5002498;28;20092;-82
2022/12/17 23:52:17;;;;;;;260.75;56.15;;;;;;;;;;4982985;28;20031;-81
2022/12/17 23:54:43;;;;;;;219.25;52.55;;;;;;;;;;5000521;28;20429;-81
2022/12/17 23:57:09;;;;;;;219.95;52.60;;;;;;;;;;4983549;28;20119;-80
2022/12/17 23:59:36;;;;;;;228.25;53.83;;;;;;;;;;4984129;28;20053;-81
